sensor_id;sensor_type;location;lat;lon;timestamp;P1;durP1;ratioP1;P2;durP2;ratioP2
11016;SDS011;54687;50.800;6.772;2024-01-15T00:00:50;27.30;;;19.17;;
11016;SDS011;54687;50.800;6.772;2024-01-15T00:03:16;23.70;;;18.60;;
11016;SDS011;54687;50.800;6.772;2024-01-15T00:05:44;24.83;;;18.10;;
11016;SDS011;54687;50.800;6.772;2024-01-15T00:08:11;25.97;;;19.03;;
11016;SDS011;54687;50.800;6.772;2024-01-15T00:10:37;28.43;;;19.13;;
11016;SDS011;54687;50.800;6.772;2024-01-15T00:13:05;27.50;;;20.30;;
11016;SDS011;54687;50.800;6.772;2024-01-15T00:15:32;28.20;;;19.63;;
11016;SDS011;54687;50.800;6.772;2024-01-15T00:17:59;27.37;;;19.23;;
11016;SDS011;54687;50.800;6.772;2024-01-15T00:20:25;30.47;;;20.10;;
11016;SDS011;54687;50.800;6.772;2024-01-15T00:22:53;26.27;;;19.63;;
11016;SDS011;54687;50.800;6.772;2024-01-15T00:25:20;27.60;;;19.87;;
11016;SDS011;54687;50.800;6.772;2024-01-15T00:27:46;28.23;;;19.47;;
11016;SDS011;54687;50.800;6.772;2024-01-15T00:30:13;27.53;;;19.90;;
11016;SDS011;54687;50.800;6.772;2024-01-15T00:32:40;27.07;;;18.40;;
11016;SDS011;54687;50.800;6.772;2024-01-15T00:35:07;28.43;;;19.70;;
11016;SDS011;54687;50.800;6.772;2024-01-15T00:37:34;29.77;;;19.87;;
11016;SDS011;54687;50.800;6.772;2024-01-15T00:40:02;30.80;;;20.70;;
11016;SDS011;54687;50.800;6.772;2024-01-15T00:42:29;29.57;;;19.70;;
11016;SDS011;54687;50.800;6.772;2024-01-15T00:44:56;26.93;;;18.73;;
11016;SDS011;54687;50.800;6.772;2024-01-15T00:47:23;32.47;;;19.23;;
11016;SDS011;54687;50.800;6.772;2024-01-15T00:49:48;23.97;;;18.03;;
11016;SDS011;54687;50.800;6.772;2024-01-15T00:52:15;27.27;;;18.50;;
11016;SDS011;54687;50.800;6.772;2024-01-15T00:54:41;27.40;;;18.57;;
11016;SDS011;54687;50.800;6.772;2024-01-15T00:57:09;29.80;;;19.10;;
11016;SDS011;54687;50.800;6.772;2024-01-15T00:59:36;25.93;;;18.17;;
11016;SDS011;54687;50.800;6.772;2024-01-15T01:02:03;40.07;;;29.27;;
11016;SDS011;54687;50.800;6.772;2024-01-15T01:04:30;28.77;;;19.10;;
11016;SDS011;54687;50.800;6.772;2024-01-15T01:06:56;28.03;;;18.53;;
11016;SDS011;54687;50.800;6.772;2024-01-15T01:09:23;29.63;;;20.27;;
11016;SDS011;54687;50.800;6.772;2024-01-15T01:11:49;29.30;;;18.93;;
11016;SDS011;54687;50.800;6.772;2024-01-15T01:14:16;26.13;;;19.17;;
11016;SDS011;54687;50.800;6.772;2024-01-15T01:16:43;29.37;;;19.33;;
11016;SDS011;54687;50.800;6.772;2024-01-15T01:19:10;29.87;;;20.57;;
11016;SDS011;54687;50.800;6.772;2024-01-15T01:21:41;30.20;;;20.60;;
11016;SDS011;54687;50.800;6.772;2024-01-15T01:24:09;32.10;;;20.13;;
11016;SDS011;54687;50.800;6.772;2024-01-15T01:26:38;32.67;;;20.73;;
11016;SDS011;54687;50.800;6.772;2024-01-15T01:29:06;28.33;;;20.13;;
11016;SDS011;54687;50.800;6.772;2024-01-15T01:31:35;27.83;;;19.90;;
11016;SDS011;54687;50.800;6.772;2024-01-15T01:34:03;30.23;;;21.30;;
11016;SDS011;54687;50.800;6.772;2024-01-15T01:36:32;29.13;;;19.80;;
11016;SDS011;54687;50.800;6.772;2024-01-15T01:39:01;31.33;;;20.30;;
11016;SDS011;54687;50.800;6.772;2024-01-15T01:41:30;31.50;;;19.93;;
11016;SDS011;54687;50.800;6.772;2024-01-15T01:44:00;27.17;;;20.70;;
11016;SDS011;54687;50.800;6.772;2024-01-15T01:46:38;29.57;;;21.13;;
11016;SDS011;54687;50.800;6.772;2024-01-15T01:49:07;29.47;;;20.37;;
11016;SDS011;54687;50.800;6.772;2024-01-15T01:51:38;32.37;;;21.07;;
11016;SDS011;54687;50.800;6.772;2024-01-15T01:54:09;30.40;;;21.83;;
11016;SDS011;54687;50.800;6.772;2024-01-15T01:56:42;32.00;;;21.53;;
11016;SDS011;54687;50.800;6.772;2024-01-15T01:59:12;31.43;;;21.17;;
11016;SDS011;54687;50.800;6.772;2024-01-15T02:01:47;36.80;;;22.47;;
11016;SDS011;54687;50.800;6.772;2024-01-15T02:04:25;33.53;;;22.37;;
11016;SDS011;54687;50.800;6.772;2024-01-15T02:07:12;33.20;;;21.63;;
11016;SDS011;54687;50.800;6.772;2024-01-15T02:09:59;33.40;;;21.47;;
11016;SDS011;54687;50.800;6.772;2024-01-15T02:12:45;30.87;;;21.83;;
11016;SDS011;54687;50.800;6.772;2024-01-15T02:15:22;34.30;;;21.80;;
11016;SDS011;54687;50.800;6.772;2024-01-15T02:18:00;27.67;;;20.83;;
11016;SDS011;54687;50.800;6.772;2024-01-15T02:20:31;31.37;;;21.90;;
11016;SDS011;54687;50.800;6.772;2024-01-15T02:23:03;31.67;;;21.67;;
11016;SDS011;54687;50.800;6.772;2024-01-15T02:25:40;31.23;;;21.97;;
11016;SDS011;54687;50.800;6.772;2024-01-15T02:28:16;30.30;;;22.30;;
11016;SDS011;54687;50.800;6.772;2024-01-15T02:30:52;31.27;;;21.90;;
11016;SDS011;54687;50.800;6.772;2024-01-15T02:33:23;28.10;;;21.00;;
11016;SDS011;54687;50.800;6.772;2024-01-15T02:35:51;32.13;;;22.03;;
11016;SDS011;54687;50.800;6.772;2024-01-15T02:38:20;34.27;;;23.27;;
11016;SDS011;54687;50.800;6.772;2024-01-15T02:40:50;31.17;;;22.83;;
11016;SDS011;54687;50.800;6.772;2024-01-15T02:43:20;28.47;;;22.47;;
11016;SDS011;54687;50.800;6.772;2024-01-15T02:45:47;28.63;;;21.07;;
11016;SDS011;54687;50.800;6.772;2024-01-15T02:48:14;33.77;;;21.83;;
11016;SDS011;54687;50.800;6.772;2024-01-15T02:50:41;28.53;;;22.10;;
11016;SDS011;54687;50.800;6.772;2024-01-15T02:53:07;38.77;;;24.37;;
11016;SDS011;54687;50.800;6.772;2024-01-15T02:55:36;31.13;;;22.67;;
11016;SDS011;54687;50.800;6.772;2024-01-15T02:58:03;30.00;;;20.60;;
11016;SDS011;54687;50.800;6.772;2024-01-15T03:00:29;28.10;;;21.03;;
11016;SDS011;54687;50.800;6.772;2024-01-15T03:02:56;25.80;;;20.17;;
11016;SDS011;54687;50.800;6.772;2024-01-15T03:05:23;29.53;;;21.13;;
11016;SDS011;54687;50.800;6.772;2024-01-15T03:07:49;28.07;;;20.90;;
11016;SDS011;54687;50.800;6.772;2024-01-15T03:10:16;29.30;;;20.80;;
11016;SDS011;54687;50.800;6.772;2024-01-15T03:12:44;24.23;;;19.47;;
11016;SDS011;54687;50.800;6.772;2024-01-15T03:15:11;26.33;;;21.37;;
11016;SDS011;54687;50.800;6.772;2024-01-15T03:17:37;26.83;;;21.30;;
11016;SDS011;54687;50.800;6.772;2024-01-15T03:20:04;26.60;;;19.73;;
11016;SDS011;54687;50.800;6.772;2024-01-15T03:22:32;29.20;;;22.27;;
11016;SDS011;54687;50.800;6.772;2024-01-15T03:24:59;26.30;;;20.07;;
11016;SDS011;54687;50.800;6.772;2024-01-15T03:27:25;26.03;;;20.13;;
11016;SDS011;54687;50.800;6.772;2024-01-15T03:29:53;27.60;;;20.77;;
11016;SDS011;54687;50.800;6.772;2024-01-15T03:32:20;24.57;;;19.47;;
11016;SDS011;54687;50.800;6.772;2024-01-15T03:34:46;26.77;;;20.50;;
11016;SDS011;54687;50.800;6.772;2024-01-15T03:37:13;28.97;;;21.47;;
11016;SDS011;54687;50.800;6.772;2024-01-15T03:39:40;31.03;;;21.57;;
11016;SDS011;54687;50.800;6.772;2024-01-15T03:42:06;28.27;;;21.97;;
11016;SDS011;54687;50.800;6.772;2024-01-15T03:44:33;27.30;;;21.30;;
11016;SDS011;54687;50.800;6.772;2024-01-15T03:47:01;25.73;;;21.17;;
11016;SDS011;54687;50.800;6.772;2024-01-15T03:49:27;27.90;;;21.00;;
11016;SDS011;54687;50.800;6.772;2024-01-15T03:51:54;28.30;;;21.50;;
11016;SDS011;54687;50.800;6.772;2024-01-15T03:54:21;29.03;;;21.03;;
11016;SDS011;54687;50.800;6.772;2024-01-15T03:56:47;26.23;;;21.43;;
11016;SDS011;54687;50.800;6.772;2024-01-15T03:59:14;26.07;;;20.43;;
11016;SDS011;54687;50.800;6.772;2024-01-15T04:01:40;26.67;;;19.77;;
11016;SDS011;54687;50.800;6.772;2024-01-15T04:04:08;25.37;;;19.90;;
11016;SDS011;54687;50.800;6.772;2024-01-15T04:06:35;25.20;;;18.83;;
11016;SDS011;54687;50.800;6.772;2024-01-15T04:09:02;25.30;;;19.03;;
11016;SDS011;54687;50.800;6.772;2024-01-15T04:11:29;23.73;;;18.70;;
11016;SDS011;54687;50.800;6.772;2024-01-15T04:13:55;23.80;;;18.20;;
11016;SDS011;54687;50.800;6.772;2024-01-15T04:16:22;22.73;;;17.97;;
11016;SDS011;54687;50.800;6.772;2024-01-15T04:18:49;25.17;;;17.50;;
11016;SDS011;54687;50.800;6.772;2024-01-15T04:21:18;23.17;;;16.93;;
11016;SDS011;54687;50.800;6.772;2024-01-15T04:23:44;21.83;;;17.20;;
11016;SDS011;54687;50.800;6.772;2024-01-15T04:26:11;21.03;;;16.70;;
11016;SDS011;54687;50.800;6.772;2024-01-15T04:28:37;19.33;;;15.60;;
11016;SDS011;54687;50.800;6.772;2024-01-15T04:31:04;22.50;;;16.93;;
11016;SDS011;54687;50.800;6.772;2024-01-15T04:33:30;20.67;;;16.60;;
11016;SDS011;54687;50.800;6.772;2024-01-15T04:35:57;19.00;;;15.73;;
11016;SDS011;54687;50.800;6.772;2024-01-15T04:38:29;21.67;;;16.73;;
11016;SDS011;54687;50.800;6.772;2024-01-15T04:40:55;21.43;;;17.20;;
11016;SDS011;54687;50.800;6.772;2024-01-15T04:43:22;24.17;;;18.50;;
11016;SDS011;54687;50.800;6.772;2024-01-15T04:45:48;20.07;;;16.43;;
11016;SDS011;54687;50.800;6.772;2024-01-15T04:48:15;24.13;;;17.97;;
11016;SDS011;54687;50.800;6.772;2024-01-15T04:50:42;22.47;;;16.63;;
11016;SDS011;54687;50.800;6.772;2024-01-15T04:53:08;21.83;;;18.07;;
11016;SDS011;54687;50.800;6.772;2024-01-15T04:55:36;23.30;;;18.57;;
11016;SDS011;54687;50.800;6.772;2024-01-15T04:58:03;24.43;;;18.00;;
11016;SDS011;54687;50.800;6.772;2024-01-15T05:00:30;21.30;;;17.20;;
11016;SDS011;54687;50.800;6.772;2024-01-15T05:02:56;26.53;;;18.40;;
11016;SDS011;54687;50.800;6.772;2024-01-15T05:05:23;21.47;;;17.50;;
11016;SDS011;54687;50.800;6.772;2024-01-15T05:07:49;27.17;;;19.10;;
11016;SDS011;54687;50.800;6.772;2024-01-15T05:10:16;26.73;;;18.13;;
11016;SDS011;54687;50.800;6.772;2024-01-15T05:12:44;24.53;;;19.07;;
11016;SDS011;54687;50.800;6.772;2024-01-15T05:15:11;27.63;;;19.80;;
11016;SDS011;54687;50.800;6.772;2024-01-15T05:17:37;29.10;;;20.37;;
11016;SDS011;54687;50.800;6.772;2024-01-15T05:20:04;25.53;;;19.87;;
11016;SDS011;54687;50.800;6.772;2024-01-15T05:22:32;26.00;;;20.10;;
11016;SDS011;54687;50.800;6.772;2024-01-15T05:24:59;27.63;;;19.97;;
11016;SDS011;54687;50.800;6.772;2024-01-15T05:27:25;26.13;;;19.13;;
11016;SDS011;54687;50.800;6.772;2024-01-15T05:29:53;27.23;;;20.00;;
11016;SDS011;54687;50.800;6.772;2024-01-15T05:32:20;23.17;;;18.87;;
11016;SDS011;54687;50.800;6.772;2024-01-15T05:34:47;22.13;;;17.70;;
11016;SDS011;54687;50.800;6.772;2024-01-15T05:37:13;19.83;;;17.27;;
11016;SDS011;54687;50.800;6.772;2024-01-15T05:39:40;21.90;;;17.27;;
11016;SDS011;54687;50.800;6.772;2024-01-15T05:42:06;21.33;;;16.97;;
11016;SDS011;54687;50.800;6.772;2024-01-15T05:44:33;18.30;;;16.37;;
11016;SDS011;54687;50.800;6.772;2024-01-15T05:47:01;22.00;;;17.63;;
11016;SDS011;54687;50.800;6.772;2024-01-15T05:49:29;19.47;;;16.93;;
11016;SDS011;54687;50.800;6.772;2024-01-15T05:51:55;19.77;;;16.60;;
11016;SDS011;54687;50.800;6.772;2024-01-15T05:54:22;25.13;;;17.80;;
11016;SDS011;54687;50.800;6.772;2024-01-15T05:56:49;19.50;;;17.10;;
11016;SDS011;54687;50.800;6.772;2024-01-15T05:59:15;20.53;;;18.33;;
11016;SDS011;54687;50.800;6.772;2024-01-15T06:01:42;22.37;;;18.47;;
11016;SDS011;54687;50.800;6.772;2024-01-15T06:04:10;20.73;;;17.57;;
11016;SDS011;54687;50.800;6.772;2024-01-15T06:06:36;22.43;;;18.90;;
11016;SDS011;54687;50.800;6.772;2024-01-15T06:09:03;22.90;;;19.73;;
11016;SDS011;54687;50.800;6.772;2024-01-15T06:11:31;24.30;;;19.00;;
11016;SDS011;54687;50.800;6.772;2024-01-15T06:13:57;21.93;;;19.40;;
11016;SDS011;54687;50.800;6.772;2024-01-15T06:16:25;27.90;;;19.63;;
11016;SDS011;54687;50.800;6.772;2024-01-15T06:18:52;23.17;;;19.33;;
11016;SDS011;54687;50.800;6.772;2024-01-15T06:21:20;25.43;;;21.03;;
11016;SDS011;54687;50.800;6.772;2024-01-15T06:23:47;27.63;;;20.60;;
11016;SDS011;54687;50.800;6.772;2024-01-15T06:26:13;23.87;;;19.63;;
11016;SDS011;54687;50.800;6.772;2024-01-15T06:28:40;23.23;;;20.03;;
11016;SDS011;54687;50.800;6.772;2024-01-15T06:31:06;30.27;;;21.67;;
11016;SDS011;54687;50.800;6.772;2024-01-15T06:33:33;26.73;;;20.63;;
11016;SDS011;54687;50.800;6.772;2024-01-15T06:36:00;27.03;;;21.10;;
11016;SDS011;54687;50.800;6.772;2024-01-15T06:38:28;26.97;;;21.63;;
11016;SDS011;54687;50.800;6.772;2024-01-15T06:40:54;26.03;;;20.60;;
11016;SDS011;54687;50.800;6.772;2024-01-15T06:43:21;27.33;;;20.27;;
11016;SDS011;54687;50.800;6.772;2024-01-15T06:45:48;27.67;;;21.80;;
11016;SDS011;54687;50.800;6.772;2024-01-15T06:48:14;28.73;;;20.87;;
11016;SDS011;54687;50.800;6.772;2024-01-15T06:50:41;27.00;;;21.17;;
11016;SDS011;54687;50.800;6.772;2024-01-15T06:53:08;28.37;;;20.83;;
11016;SDS011;54687;50.800;6.772;2024-01-15T06:55:36;28.83;;;21.87;;
11016;SDS011;54687;50.800;6.772;2024-01-15T06:58:03;25.97;;;20.27;;
11016;SDS011;54687;50.800;6.772;2024-01-15T07:00:30;28.50;;;19.47;;
11016;SDS011;54687;50.800;6.772;2024-01-15T07:02:57;25.73;;;20.83;;
11016;SDS011;54687;50.800;6.772;2024-01-15T07:05:23;23.67;;;19.10;;
11016;SDS011;54687;50.800;6.772;2024-01-15T07:07:50;23.53;;;19.03;;
11016;SDS011;54687;50.800;6.772;2024-01-15T07:10:17;22.50;;;18.60;;
11016;SDS011;54687;50.800;6.772;2024-01-15T07:12:45;27.73;;;18.53;;
11016;SDS011;54687;50.800;6.772;2024-01-15T07:15:12;22.50;;;17.63;;
11016;SDS011;54687;50.800;6.772;2024-01-15T07:17:38;23.07;;;18.67;;
11016;SDS011;54687;50.800;6.772;2024-01-15T07:20:05;24.50;;;20.00;;
11016;SDS011;54687;50.800;6.772;2024-01-15T07:22:34;22.97;;;19.23;;
11016;SDS011;54687;50.800;6.772;2024-01-15T07:25:01;24.80;;;18.53;;
11016;SDS011;54687;50.800;6.772;2024-01-15T07:27:29;23.33;;;18.27;;
11016;SDS011;54687;50.800;6.772;2024-01-15T07:29:58;20.25;;;16.75;;
11016;SDS011;54687;50.800;6.772;2024-01-15T07:32:24;19.85;;;16.52;;
11016;SDS011;54687;50.800;6.772;2024-01-15T07:34:51;28.60;;;18.15;;
11016;SDS011;54687;50.800;6.772;2024-01-15T07:37:17;21.83;;;16.38;;
11016;SDS011;54687;50.800;6.772;2024-01-15T07:39:44;18.53;;;15.83;;
11016;SDS011;54687;50.800;6.772;2024-01-15T07:42:10;22.48;;;16.77;;
11016;SDS011;54687;50.800;6.772;2024-01-15T07:44:37;26.45;;;16.90;;
11016;SDS011;54687;50.800;6.772;2024-01-15T07:47:05;21.83;;;17.13;;
11016;SDS011;54687;50.800;6.772;2024-01-15T07:49:33;19.70;;;15.45;;
11016;SDS011;54687;50.800;6.772;2024-01-15T07:52:00;21.77;;;16.87;;
11016;SDS011;54687;50.800;6.772;2024-01-15T07:54:27;20.53;;;17.37;;
11016;SDS011;54687;50.800;6.772;2024-01-15T07:56:54;20.02;;;16.17;;
11016;SDS011;54687;50.800;6.772;2024-01-15T07:59:22;24.83;;;18.00;;
11016;SDS011;54687;50.800;6.772;2024-01-15T08:01:49;24.07;;;17.87;;
11016;SDS011;54687;50.800;6.772;2024-01-15T08:04:17;23.00;;;18.13;;
11016;SDS011;54687;50.800;6.772;2024-01-15T08:06:43;22.23;;;18.60;;
11016;SDS011;54687;50.800;6.772;2024-01-15T08:09:10;24.27;;;18.80;;
11016;SDS011;54687;50.800;6.772;2024-01-15T08:11:39;27.27;;;20.42;;
11016;SDS011;54687;50.800;6.772;2024-01-15T08:14:06;21.98;;;19.20;;
11016;SDS011;54687;50.800;6.772;2024-01-15T08:16:33;27.67;;;19.20;;
11016;SDS011;54687;50.800;6.772;2024-01-15T08:18:59;24.98;;;19.17;;
11016;SDS011;54687;50.800;6.772;2024-01-15T08:21:27;25.48;;;19.05;;
11016;SDS011;54687;50.800;6.772;2024-01-15T08:23:55;24.88;;;17.85;;
11016;SDS011;54687;50.800;6.772;2024-01-15T08:26:22;21.40;;;17.67;;
11016;SDS011;54687;50.800;6.772;2024-01-15T08:28:48;24.08;;;19.50;;
11016;SDS011;54687;50.800;6.772;2024-01-15T08:31:15;28.13;;;19.42;;
11016;SDS011;54687;50.800;6.772;2024-01-15T08:33:42;20.90;;;18.13;;
11016;SDS011;54687;50.800;6.772;2024-01-15T08:36:09;24.00;;;19.02;;
11016;SDS011;54687;50.800;6.772;2024-01-15T08:38:37;24.40;;;18.30;;
11016;SDS011;54687;50.800;6.772;2024-01-15T08:41:04;30.75;;;19.15;;
11016;SDS011;54687;50.800;6.772;2024-01-15T08:43:30;26.58;;;17.88;;
11016;SDS011;54687;50.800;6.772;2024-01-15T08:45:57;24.92;;;18.77;;
11016;SDS011;54687;50.800;6.772;2024-01-15T08:48:24;21.55;;;17.67;;
11016;SDS011;54687;50.800;6.772;2024-01-15T08:50:52;23.42;;;17.38;;
11016;SDS011;54687;50.800;6.772;2024-01-15T08:53:19;20.23;;;16.40;;
11016;SDS011;54687;50.800;6.772;2024-01-15T08:55:47;20.25;;;16.40;;
11016;SDS011;54687;50.800;6.772;2024-01-15T08:58:14;26.85;;;19.08;;
11016;SDS011;54687;50.800;6.772;2024-01-15T09:00:41;18.98;;;15.40;;
11016;SDS011;54687;50.800;6.772;2024-01-15T09:03:08;26.50;;;15.48;;
11016;SDS011;54687;50.800;6.772;2024-01-15T09:05:35;19.85;;;14.75;;
11016;SDS011;54687;50.800;6.772;2024-01-15T09:08:01;18.00;;;14.43;;
11016;SDS011;54687;50.800;6.772;2024-01-15T09:10:28;20.30;;;13.50;;
11016;SDS011;54687;50.800;6.772;2024-01-15T09:12:56;18.00;;;13.82;;
11016;SDS011;54687;50.800;6.772;2024-01-15T09:15:23;20.60;;;13.93;;
11016;SDS011;54687;50.800;6.772;2024-01-15T09:17:49;17.95;;;13.07;;
11016;SDS011;54687;50.800;6.772;2024-01-15T09:20:16;13.77;;;12.18;;
11016;SDS011;54687;50.800;6.772;2024-01-15T09:22:43;16.40;;;12.88;;
11016;SDS011;54687;50.800;6.772;2024-01-15T09:25:10;16.98;;;11.60;;
11016;SDS011;54687;50.800;6.772;2024-01-15T09:27:37;12.52;;;11.32;;
11016;SDS011;54687;50.800;6.772;2024-01-15T09:30:05;12.75;;;10.63;;
11016;SDS011;54687;50.800;6.772;2024-01-15T09:32:33;12.77;;;10.93;;
11016;SDS011;54687;50.800;6.772;2024-01-15T09:35:00;12.40;;;10.15;;
11016;SDS011;54687;50.800;6.772;2024-01-15T09:37:26;13.90;;;10.65;;
11016;SDS011;54687;50.800;6.772;2024-01-15T09:39:53;14.57;;;10.60;;
11016;SDS011;54687;50.800;6.772;2024-01-15T09:42:21;11.68;;;10.35;;
11016;SDS011;54687;50.800;6.772;2024-01-15T09:44:48;12.23;;;11.00;;
11016;SDS011;54687;50.800;6.772;2024-01-15T09:47:16;13.70;;;9.98;;
11016;SDS011;54687;50.800;6.772;2024-01-15T09:49:44;16.38;;;11.07;;
11016;SDS011;54687;50.800;6.772;2024-01-15T09:52:11;11.05;;;9.82;;
11016;SDS011;54687;50.800;6.772;2024-01-15T09:54:37;13.18;;;10.20;;
11016;SDS011;54687;50.800;6.772;2024-01-15T09:57:05;12.35;;;10.10;;
11016;SDS011;54687;50.800;6.772;2024-01-15T09:59:32;12.52;;;10.15;;
11016;SDS011;54687;50.800;6.772;2024-01-15T10:02:00;11.40;;;10.20;;
11016;SDS011;54687;50.800;6.772;2024-01-15T10:04:30;13.35;;;10.30;;
11016;SDS011;54687;50.800;6.772;2024-01-15T10:06:56;11.60;;;10.33;;
11016;SDS011;54687;50.800;6.772;2024-01-15T10:09:27;13.70;;;10.57;;
11016;SDS011;54687;50.800;6.772;2024-01-15T10:11:54;49.50;;;43.28;;
11016;SDS011;54687;50.800;6.772;2024-01-15T10:14:21;14.45;;;12.93;;
11016;SDS011;54687;50.800;6.772;2024-01-15T10:16:48;13.65;;;10.27;;
11016;SDS011;54687;50.800;6.772;2024-01-15T10:19:15;10.47;;;9.37;;
11016;SDS011;54687;50.800;6.772;2024-01-15T10:21:42;13.45;;;10.80;;
11016;SDS011;54687;50.800;6.772;2024-01-15T10:24:09;11.18;;;10.02;;
11016;SDS011;54687;50.800;6.772;2024-01-15T10:26:36;11.40;;;9.95;;
11016;SDS011;54687;50.800;6.772;2024-01-15T10:29:02;12.75;;;10.45;;
11016;SDS011;54687;50.800;6.772;2024-01-15T10:31:29;12.73;;;11.40;;
11016;SDS011;54687;50.800;6.772;2024-01-15T10:34:02;10.77;;;9.77;;
11016;SDS011;54687;50.800;6.772;2024-01-15T10:36:36;10.35;;;9.25;;
11016;SDS011;54687;50.800;6.772;2024-01-15T10:39:07;11.05;;;8.63;;
11016;SDS011;54687;50.800;6.772;2024-01-15T10:41:34;9.68;;;8.77;;
11016;SDS011;54687;50.800;6.772;2024-01-15T10:44:01;10.18;;;9.10;;
11016;SDS011;54687;50.800;6.772;2024-01-15T10:46:27;9.18;;;8.27;;
11016;SDS011;54687;50.800;6.772;2024-01-15T10:48:55;9.48;;;8.57;;
11016;SDS011;54687;50.800;6.772;2024-01-15T10:51:22;10.27;;;9.30;;
11016;SDS011;54687;50.800;6.772;2024-01-15T10:53:51;10.52;;;9.65;;
11016;SDS011;54687;50.800;6.772;2024-01-15T10:56:21;10.35;;;9.45;;
11016;SDS011;54687;50.800;6.772;2024-01-15T10:58:48;11.02;;;9.93;;
11016;SDS011;54687;50.800;6.772;2024-01-15T11:01:15;10.32;;;9.27;;
11016;SDS011;54687;50.800;6.772;2024-01-15T11:03:44;11.77;;;10.57;;
11016;SDS011;54687;50.800;6.772;2024-01-15T11:06:18;12.13;;;10.95;;
11016;SDS011;54687;50.800;6.772;2024-01-15T11:08:46;11.98;;;10.20;;
11016;SDS011;54687;50.800;6.772;2024-01-15T11:11:15;11.18;;;9.95;;
11016;SDS011;54687;50.800;6.772;2024-01-15T11:13:43;11.73;;;10.38;;
11016;SDS011;54687;50.800;6.772;2024-01-15T11:16:15;11.70;;;10.48;;
11016;SDS011;54687;50.800;6.772;2024-01-15T11:18:42;11.02;;;9.98;;
11016;SDS011;54687;50.800;6.772;2024-01-15T11:21:21;10.52;;;9.45;;
11016;SDS011;54687;50.800;6.772;2024-01-15T11:23:50;11.60;;;10.32;;
11016;SDS011;54687;50.800;6.772;2024-01-15T11:26:31;11.50;;;9.70;;
11016;SDS011;54687;50.800;6.772;2024-01-15T11:29:04;13.93;;;10.05;;
11016;SDS011;54687;50.800;6.772;2024-01-15T11:37:24;13.85;;;10.45;;
11016;SDS011;54687;50.800;6.772;2024-01-15T11:39:56;15.93;;;10.02;;
11016;SDS011;54687;50.800;6.772;2024-01-15T11:42:29;13.45;;;10.55;;
11016;SDS011;54687;50.800;6.772;2024-01-15T11:44:57;14.73;;;10.65;;
11016;SDS011;54687;50.800;6.772;2024-01-15T11:47:32;11.57;;;10.00;;
11016;SDS011;54687;50.800;6.772;2024-01-15T11:50:32;12.77;;;9.77;;
11016;SDS011;54687;50.800;6.772;2024-01-15T11:53:00;11.15;;;8.95;;
11016;SDS011;54687;50.800;6.772;2024-01-15T11:55:33;13.75;;;8.63;;
11016;SDS011;54687;50.800;6.772;2024-01-15T11:58:08;11.77;;;9.30;;
11016;SDS011;54687;50.800;6.772;2024-01-15T12:01:10;13.00;;;8.10;;
11016;SDS011;54687;50.800;6.772;2024-01-15T12:03:43;12.40;;;8.20;;
11016;SDS011;54687;50.800;6.772;2024-01-15T12:06:24;11.45;;;9.05;;
11016;SDS011;54687;50.800;6.772;2024-01-15T12:09:05;15.00;;;8.55;;
11016;SDS011;54687;50.800;6.772;2024-01-15T12:11:42;15.68;;;9.45;;
11016;SDS011;54687;50.800;6.772;2024-01-15T12:14:21;14.60;;;8.93;;
11016;SDS011;54687;50.800;6.772;2024-01-15T12:16:50;13.25;;;8.65;;
11016;SDS011;54687;50.800;6.772;2024-01-15T12:19:17;11.68;;;7.80;;
11016;SDS011;54687;50.800;6.772;2024-01-15T12:21:54;9.05;;;7.93;;
11016;SDS011;54687;50.800;6.772;2024-01-15T12:24:32;14.50;;;7.57;;
11016;SDS011;54687;50.800;6.772;2024-01-15T12:27:03;12.05;;;7.32;;
11016;SDS011;54687;50.800;6.772;2024-01-15T12:29:33;16.80;;;6.65;;
11016;SDS011;54687;50.800;6.772;2024-01-15T12:34:56;13.02;;;6.70;;
11016;SDS011;54687;50.800;6.772;2024-01-15T12:37:30;10.60;;;6.78;;
11016;SDS011;54687;50.800;6.772;2024-01-15T12:40:00;11.07;;;6.05;;
11016;SDS011;54687;50.800;6.772;2024-01-15T12:42:37;19.98;;;8.38;;
11016;SDS011;54687;50.800;6.772;2024-01-15T12:45:53;13.05;;;6.70;;
11016;SDS011;54687;50.800;6.772;2024-01-15T12:48:24;11.25;;;6.47;;
11016;SDS011;54687;50.800;6.772;2024-01-15T12:50:57;12.40;;;6.63;;
11016;SDS011;54687;50.800;6.772;2024-01-15T12:53:25;11.50;;;6.63;;
11016;SDS011;54687;50.800;6.772;2024-01-15T12:55:55;12.07;;;6.30;;
11016;SDS011;54687;50.800;6.772;2024-01-15T12:58:26;10.75;;;6.20;;
11016;SDS011;54687;50.800;6.772;2024-01-15T13:01:29;9.27;;;5.63;;
11016;SDS011;54687;50.800;6.772;2024-01-15T13:04:00;10.25;;;5.35;;
11016;SDS011;54687;50.800;6.772;2024-01-15T13:06:27;12.05;;;5.97;;
11016;SDS011;54687;50.800;6.772;2024-01-15T13:08:57;11.00;;;5.57;;
11016;SDS011;54687;50.800;6.772;2024-01-15T13:11:24;14.43;;;6.20;;
11016;SDS011;54687;50.800;6.772;2024-01-15T13:13:52;12.05;;;5.65;;
11016;SDS011;54687;50.800;6.772;2024-01-15T13:16:23;11.60;;;5.65;;
11016;SDS011;54687;50.800;6.772;2024-01-15T13:18:52;9.75;;;5.43;;
11016;SDS011;54687;50.800;6.772;2024-01-15T13:21:24;11.25;;;5.63;;
11016;SDS011;54687;50.800;6.772;2024-01-15T13:23:51;13.43;;;5.07;;
11016;SDS011;54687;50.800;6.772;2024-01-15T13:26:25;7.97;;;5.15;;
11016;SDS011;54687;50.800;6.772;2024-01-15T13:28:53;11.43;;;5.45;;
11016;SDS011;54687;50.800;6.772;2024-01-15T13:31:45;7.45;;;5.95;;
11016;SDS011;54687;50.800;6.772;2024-01-15T13:34:13;9.02;;;5.90;;
11016;SDS011;54687;50.800;6.772;2024-01-15T13:36:44;8.48;;;5.88;;
11016;SDS011;54687;50.800;6.772;2024-01-15T13:39:18;9.45;;;5.45;;
11016;SDS011;54687;50.800;6.772;2024-01-15T13:42:02;10.45;;;5.50;;
11016;SDS011;54687;50.800;6.772;2024-01-15T13:47:59;10.38;;;5.53;;
11016;SDS011;54687;50.800;6.772;2024-01-15T13:50:33;7.22;;;5.03;;
11016;SDS011;54687;50.800;6.772;2024-01-15T13:53:03;10.43;;;5.20;;
11016;SDS011;54687;50.800;6.772;2024-01-15T13:55:34;6.28;;;5.68;;
11016;SDS011;54687;50.800;6.772;2024-01-15T13:58:05;5.97;;;4.85;;
11016;SDS011;54687;50.800;6.772;2024-01-15T14:00:38;7.53;;;4.38;;
11016;SDS011;54687;50.800;6.772;2024-01-15T14:03:22;9.77;;;4.70;;
11016;SDS011;54687;50.800;6.772;2024-01-15T14:05:58;5.28;;;3.88;;
11016;SDS011;54687;50.800;6.772;2024-01-15T14:08:39;5.97;;;3.45;;
11016;SDS011;54687;50.800;6.772;2024-01-15T14:11:06;6.60;;;4.13;;
11016;SDS011;54687;50.800;6.772;2024-01-15T14:13:44;5.28;;;4.20;;
11016;SDS011;54687;50.800;6.772;2024-01-15T14:16:13;5.43;;;4.07;;
11016;SDS011;54687;50.800;6.772;2024-01-15T14:18:44;5.35;;;4.40;;
11016;SDS011;54687;50.800;6.772;2024-01-15T14:21:11;7.38;;;5.03;;
11016;SDS011;54687;50.800;6.772;2024-01-15T14:23:41;4.93;;;4.18;;
11016;SDS011;54687;50.800;6.772;2024-01-15T14:26:15;6.07;;;4.45;;
11016;SDS011;54687;50.800;6.772;2024-01-15T14:28:43;6.60;;;4.35;;
11016;SDS011;54687;50.800;6.772;2024-01-15T14:31:14;6.95;;;4.50;;
11016;SDS011;54687;50.800;6.772;2024-01-15T14:37:06;4.97;;;4.47;;
11016;SDS011;54687;50.800;6.772;2024-01-15T14:39:42;7.82;;;4.97;;
11016;SDS011;54687;50.800;6.772;2024-01-15T14:42:30;4.55;;;4.15;;
11016;SDS011;54687;50.800;6.772;2024-01-15T14:44:59;6.60;;;4.68;;
11016;SDS011;54687;50.800;6.772;2024-01-15T14:47:42;6.75;;;4.13;;
11016;SDS011;54687;50.800;6.772;2024-01-15T14:50:18;5.43;;;4.55;;
11016;SDS011;54687;50.800;6.772;2024-01-15T14:52:57;6.63;;;4.53;;